Cocos Keeling Island Airport
YPCC : now visible

Airfield :











YOU CAN JOIN US ON...

 
LOGIN :

Register | Disclaimer

   EN    FR    IT 

 









Legend :    VFR   Marginal VFR   IFR   Intensive IFR   Very Intensive IFR
Visi :
Ceiling :
>= 8 km
>= 3000ft
5 to 8 km
1000 to 3000 ft
1500m to 5 km
500 to 1000 ft
800 to 1500m
200 to 500 ft
< 800m
< 200 ft
Symbols :   Thunderstorms  Fog  Heavy snow  Heavy precipitations  Wind > 20 kt






- Airport Elevation : 10 ft
- IATA code : CCK


YPCC - Cocos Keeling Island

CURRENT METAR :
  • 270400Z AUTO 10011KT 9999 // SCT022 30/25 Q1010

EXPIRED METARs :
  • 270330Z AUTO 10011KT 9999 // SCT022 29/25 Q1010 RF00.0/000.2
  • 270300Z 09011KT 9999 FEW019 SCT350 29/25 Q1010
  • 270230Z 09012KT 9999 FEW019 29/25 Q1010
  • 270200Z 09012KT 9999 FEW019 29/25 Q1010
  • 270130Z 11007KT 9999 FEW019 29/24 Q1010

TAF TAF YPCC
Valid from the 27 at 00:00 until the 28 at 00:00 UTC


262329Z 2700/2800 12012KT 9999 SCT020
TEMPO 2700/2718 VRB20G35KT 1000 TSRA BKN008 FEW020CB INTER 2718/2800 2000 SHRA BKN010



MET'MAP, your aeronautical weather chart ! - Copyright ORBIFLY December 2007 - Disclaimer

ORBIFLY MET'MAP TEAM :

Programming & Development : Alexandra Zaïnal
Concept & original design : Baudouin d'Aumeries
Assistance for programming : Marc-Olivier Méhu
Technical & hardware support : Manuel Goepfert

Contact : metmap@orbifly.com




SOURCES & CREDITS :

   NOAA       Earth
Advisory